Time;durP1;ratioP1;P1;durP2;ratioP2;P2;SDS_P1;SDS_P2;PMS_P1;PMS_P2;Temp;Humidity;BMP_temperature;BMP_pressure;BME280_temperature;BME280_humidity;BME280_pressure;Samples;Min_cycle;Max_cycle;Signal;HPM_P1;HPM_P2
2021/03/08 00:00:22;;;;;;;6.10;2.28;;;17.10;42.60;;;;;;4891298;29;20283;-81
2021/03/08 00:03:06;;;;;;;5.78;1.83;;;17.10;42.60;;;;;;4890947;29;20191;-81
2021/03/08 00:05:51;;;;;;;5.80;2.08;;;17.00;42.50;;;;;;4890286;29;20187;-81
2021/03/08 00:08:35;;;;;;;7.93;2.03;;;17.00;42.50;;;;;;4890948;29;20251;-81
2021/03/08 00:11:04;;;;;;;5.03;2.00;;;17.00;42.50;;;;;;5383242;23;21186;-81
2021/03/08 00:13:57;;;;;;;4.93;2.13;;;17.00;43.20;;;;;;4945231;29;20193;-81
2021/03/08 00:16:38;;;;;;;5.05;2.05;;;17.00;42.60;;;;;;4902215;29;20284;-81
2021/03/08 00:19:04;;;;;;;4.20;1.90;;;17.00;42.30;;;;;;4845822;29;20194;-81
2021/03/08 00:22:03;;;;;;;6.28;2.20;;;17.00;42.40;;;;;;4832691;29;20197;-81
2021/03/08 00:24:35;;;;;;;6.43;1.92;;;17.00;42.50;;;;;;4779557;30;20224;-81
2021/03/08 00:27:42;;;;;;;;;;;;;;;;;;;;;
2021/03/08 00:30:39;;;;;;;5.80;2.17;;;17.10;42.50;;;;;;4783949;30;20211;-80
2021/03/08 00:33:51;;;;;;;;;;;;;;;;;;;;;
2021/03/08 00:36:48;;;;;;;6.97;1.67;;;17.10;42.50;;;;;;4792674;30;20219;-81
2021/03/08 00:39:34;;;;;;;4.15;1.70;;;17.10;42.40;;;;;;4811618;30;20174;-81
2021/03/08 00:42:41;;;;;;;4.22;1.80;;;17.10;42.20;;;;;;4811044;30;20218;-81
2021/03/08 00:45:58;;;;;;;8.65;2.08;;;17.10;42.50;;;;;;4793241;30;20164;-81
2021/03/08 00:48:30;;;;;;;8.07;1.67;;;17.00;42.40;;;;;;4845099;29;20228;-82
2021/03/08 00:51:36;;;;;;;7.85;2.38;;;17.00;42.50;;;;;;4835699;29;20192;-82
2021/03/08 00:54:03;;;;;;;3.95;1.77;;;17.00;42.40;;;;;;4865565;29;20162;-82
2021/03/08 00:56:29;;;;;;;4.50;1.85;;;17.00;42.50;;;;;;4863485;29;20179;-81
2021/03/08 00:59:13;;;;;;;10.25;2.40;;;17.00;42.50;;;;;;4906047;29;20199;-82
2021/03/08 01:01:40;;;;;;;6.07;2.00;;;17.00;42.50;;;;;;4935471;29;20186;-81
2021/03/08 01:04:07;;;;;;;4.13;1.73;;;17.00;42.40;;;;;;4960477;29;20142;-81
2021/03/08 01:06:57;;;;;;;5.05;1.70;;;17.00;42.30;;;;;;4960217;29;20154;-81
2021/03/08 01:09:50;;;;;;;8.13;2.47;;;17.00;42.30;;;;;;4961150;29;20197;-82
2021/03/08 01:12:51;;;;;;;7.38;2.17;;;17.00;42.40;;;;;;4960439;29;20221;-82
2021/03/08 01:15:52;;;;;;;3.22;1.80;;;17.00;42.40;;;;;;4960018;29;20229;-81
2021/03/08 01:19:10;;;;;;;5.15;1.80;;;17.00;42.30;;;;;;4944399;29;20145;-81
2021/03/08 01:21:46;;;;;;;4.20;1.50;;;17.00;42.30;;;;;;4960240;29;20158;-81
2021/03/08 01:24:14;;;;;;;5.82;1.90;;;17.00;42.40;;;;;;4943258;29;20188;-81
2021/03/08 01:26:50;;;;;;;5.85;1.80;;;17.00;42.30;;;;;;4944202;29;20221;-81
2021/03/08 01:29:44;;;;;;;3.20;1.88;;;17.00;42.30;;;;;;4959116;29;20206;-82
2021/03/08 01:32:21;;;;;;;7.95;2.17;;;17.00;42.20;;;;;;4959260;29;20193;-82
2021/03/08 01:34:52;;;;;;;6.25;1.70;;;17.00;42.30;;;;;;4928401;29;20182;-81
2021/03/08 01:37:57;;;;;;;5.50;1.75;;;17.00;42.30;;;;;;4960013;29;20609;-81
2021/03/08 01:41:17;;;;;;;5.65;1.90;;;17.00;42.50;;;;;;4960621;29;20153;-81
2021/03/08 01:43:45;;;;;;;5.55;1.98;;;17.00;42.50;;;;;;4910715;29;20188;-82
2021/03/08 01:46:14;;;;;;;5.75;1.77;;;16.90;42.40;;;;;;4890300;29;20219;-81
2021/03/08 01:48:52;;;;;;;6.35;1.73;;;17.00;42.30;;;;;;4901809;29;20203;-82
2021/03/08 01:51:51;;;;;;;4.38;1.80;;;16.90;42.30;;;;;;4886937;29;20172;-81
2021/03/08 01:54:24;;;;;;;7.72;1.60;;;17.00;42.30;;;;;;4886750;29;20232;-81
2021/03/08 01:57:00;;;;;;;6.53;2.05;;;17.00;42.10;;;;;;4902605;29;20139;-81
2021/03/08 01:59:28;;;;;;;7.45;1.98;;;17.00;42.20;;;;;;4901596;29;20207;-81
2021/03/08 02:05:46;;;;;;;4.57;1.75;;;17.00;42.80;;;;;;4902070;29;20180;-82
2021/03/08 02:08:58;;;;;;;5.55;1.85;;;17.00;42.30;;;;;;4901336;29;20242;-82
2021/03/08 02:11:25;;;;;;;4.65;1.70;;;17.00;42.30;;;;;;4885169;29;20200;-81
2021/03/08 02:14:15;;;;;;;4.93;2.17;;;17.00;42.30;;;;;;4886101;29;20196;-81
2021/03/08 02:20:18;;;;;;;6.15;1.67;;;16.90;42.40;;;;;;4870496;29;20242;-82
2021/03/08 02:23:09;;;;;;;5.07;1.90;;;16.90;42.30;;;;;;4850792;29;20158;-81
2021/03/08 02:26:12;;;;;;;6.68;1.90;;;17.00;42.30;;;;;;4863179;29;20187;-81
2021/03/08 02:29:19;;;;;;;;;;;;;;;;;;;;;
2021/03/08 02:31:59;;;;;;;5.22;1.77;;;17.00;42.30;;;;;;4919738;29;20206;-81
2021/03/08 02:34:51;;;;;;;5.60;1.95;;;17.00;42.20;;;;;;4888906;29;20156;-81
2021/03/08 02:37:50;;;;;;;4.43;1.73;;;17.00;42.20;;;;;;4888680;29;20186;-81
2021/03/08 02:40:53;;;;;;;7.95;1.95;;;17.00;42.30;;;;;;4888869;29;20167;-82
2021/03/08 02:43:56;;;;;;;3.72;2.13;;;17.00;42.20;;;;;;4849327;29;20177;-81
2021/03/08 02:46:37;;;;;;;4.05;2.25;;;17.00;42.20;;;;;;4849151;29;20165;-81
2021/03/08 02:52:40;;;;;;;7.05;2.00;;;16.90;42.20;;;;;;4848634;29;20188;-81
2021/03/08 02:55:16;;;;;;;3.25;1.80;;;16.90;42.20;;;;;;4834213;29;20190;-81
2021/03/08 02:58:14;;;;;;;5.72;1.80;;;16.90;42.10;;;;;;4819331;29;20326;-81
2021/03/08 03:01:22;;;;;;;4.65;1.60;;;16.90;42.30;;;;;;4848688;29;20190;-81
2021/03/08 03:04:13;;;;;;;4.70;1.70;;;16.90;42.30;;;;;;4848901;29;20178;-82
2021/03/08 03:07:37;;;;;;;3.20;1.63;;;16.90;42.30;;;;;;4790271;29;20174;-81
2021/03/08 03:10:51;;;;;;;7.18;1.88;;;16.90;42.30;;;;;;4777047;30;20284;-82
2021/03/08 03:17:01;;;;;;;5.80;2.00;;;16.90;42.30;;;;;;4777044;30;20158;-81
2021/03/08 03:19:45;;;;;;;6.97;2.05;;;16.90;43.00;;;;;;4776428;29;20299;-81
2021/03/08 03:22:52;;;;;;;3.28;1.90;;;16.90;42.20;;;;;;4818673;29;20193;-82
2021/03/08 03:25:41;;;;;;;6.05;1.60;;;16.90;42.20;;;;;;4848402;29;20170;-81
2021/03/08 03:28:14;;;;;;;5.30;1.73;;;16.90;42.30;;;;;;4818822;29;20226;-81
2021/03/08 03:31:03;;;;;;;6.28;1.98;;;16.90;42.30;;;;;;4818737;29;20222;-82
2021/03/08 03:33:40;;;;;;;3.88;1.50;;;16.90;42.20;;;;;;4833533;29;20167;-82
2021/03/08 03:36:38;;;;;;;6.53;1.80;;;16.90;42.20;;;;;;4812509;30;20188;-81
2021/03/08 03:43:10;;;;;;;5.50;1.58;;;16.90;42.20;;;;;;4811662;30;20175;-81
2021/03/08 03:46:06;;;;;;;5.85;1.70;;;16.90;42.20;;;;;;4884620;29;20176;-82
2021/03/08 03:48:56;;;;;;;5.80;1.90;;;16.90;42.20;;;;;;4868925;29;20201;-81
2021/03/08 03:51:22;;;;;;;4.20;1.60;;;16.90;42.30;;;;;;4896124;29;20199;-81
2021/03/08 03:57:56;;;;;;;4.88;1.70;;;16.90;42.40;;;;;;4921673;29;20196;-81
2021/03/08 04:04:07;;;;;;;5.72;1.80;;;16.90;42.20;;;;;;4921541;29;20183;-81
2021/03/08 04:06:42;;;;;;;5.47;1.70;;;16.90;42.20;;;;;;4930960;29;20257;-81
2021/03/08 04:09:32;;;;;;;3.95;1.60;;;16.90;42.20;;;;;;4926961;29;20189;-82
2021/03/08 04:12:08;;;;;;;3.67;1.80;;;16.90;42.10;;;;;;4959158;29;20259;-82
2021/03/08 04:14:44;;;;;;;3.00;1.67;;;16.80;42.20;;;;;;4927428;29;20197;-82
2021/03/08 04:17:22;;;;;;;3.70;1.60;;;16.90;42.10;;;;;;4927305;29;20176;-82
2021/03/08 04:23:19;;;;;;;3.47;1.73;;;16.90;42.20;;;;;;4934526;29;20178;-81
2021/03/08 04:26:32;;;;;;;3.95;1.52;;;16.90;42.20;;;;;;4939197;29;20267;-82
2021/03/08 04:29:13;;;;;;;4.22;1.77;;;16.90;42.20;;;;;;4923725;29;20230;-81
2021/03/08 04:31:58;;;;;;;6.80;1.48;;;16.90;42.10;;;;;;4923966;29;20170;-81
2021/03/08 04:34:56;;;;;;;5.78;1.60;;;16.90;42.10;;;;;;4923281;29;20223;-82
2021/03/08 04:37:26;;;;;;;3.65;1.50;;;16.90;42.10;;;;;;4864600;29;20204;-81
2021/03/08 04:40:38;;;;;;;4.65;1.65;;;16.90;42.20;;;;;;4849474;29;20570;-81
2021/03/08 04:43:41;;;;;;;5.72;1.67;;;16.80;42.10;;;;;;4831358;29;20170;-81
2021/03/08 04:46:16;;;;;;;4.15;1.52;;;16.90;42.30;;;;;;4791771;30;20203;-82
2021/03/08 04:48:48;;;;;;;5.30;1.90;;;16.80;42.20;;;;;;4791298;30;20207;-82
2021/03/08 04:51:15;;;;;;;4.88;1.85;;;16.80;42.30;;;;;;4791717;30;20200;-81
2021/03/08 04:53:43;;;;;;;5.30;1.60;;;16.90;42.20;;;;;;4791131;30;20192;-81
2021/03/08 05:00:02;;;;;;;3.97;1.50;;;16.90;42.00;;;;;;4796385;29;20179;-82
2021/03/08 05:02:51;;;;;;;4.18;1.83;;;16.90;42.10;;;;;;4796748;30;20223;-82
2021/03/08 05:06:04;;;;;;;3.15;1.63;;;16.80;42.10;;;;;;4780967;30;20240;-81
2021/03/08 05:08:56;;;;;;;3.92;1.65;;;16.80;41.80;;;;;;4813817;29;20286;-82
2021/03/08 05:11:59;;;;;;;4.60;1.63;;;16.90;41.20;;;;;;4774961;30;20252;-81
2021/03/08 05:14:40;;;;;;;2.67;1.38;;;17.00;41.10;;;;;;4788473;30;20207;-82
2021/03/08 05:17:49;;;;;;;3.22;1.63;;;17.00;40.90;;;;;;4810632;29;20200;-82
2021/03/08 05:24:18;;;;;;;2.28;1.55;;;17.00;41.20;;;;;;4864781;29;20200;-82
2021/03/08 05:26:50;;;;;;;2.80;1.30;;;16.90;41.20;;;;;;4861891;29;20184;-82
2021/03/08 05:29:54;;;;;;;3.40;1.50;;;16.90;41.20;;;;;;4849641;29;20215;-82
2021/03/08 05:36:17;;;;;;;2.25;1.30;;;16.90;41.00;;;;;;4828282;29;20166;-82
2021/03/08 05:38:48;;;;;;;3.85;1.70;;;16.90;40.90;;;;;;4777335;30;20271;-82
2021/03/08 05:45:52;;;;;;;4.25;1.40;;;17.10;40.40;;;;;;4773055;30;20224;-82
2021/03/08 05:48:32;;;;;;;3.20;1.50;;;17.00;40.50;;;;;;4796065;29;20225;-82
2021/03/08 05:51:46;;;;;;;3.65;1.58;;;17.00;40.50;;;;;;4827909;29;20185;-82
2021/03/08 05:54:44;;;;;;;3.33;1.40;;;16.90;40.70;;;;;;4821497;29;20183;-81
2021/03/08 05:57:41;;;;;;;3.53;1.30;;;16.90;40.30;;;;;;4773172;30;20189;-82
2021/03/08 06:00:20;;;;;;;2.08;1.20;;;17.00;40.30;;;;;;4756620;30;20196;-83
2021/03/08 06:03:13;;;;;;;2.90;1.33;;;17.00;39.90;;;;;;4771730;30;20724;-82
2021/03/08 06:06:03;;;;;;;3.05;1.20;;;17.00;40.20;;;;;;4773465;30;20737;-83
2021/03/08 06:08:40;;;;;;;2.38;1.40;;;17.10;39.90;;;;;;4773368;30;20197;-82
2021/03/08 06:11:16;;;;;;;1.95;1.25;;;17.10;39.90;;;;;;4739832;30;20216;-82
2021/03/08 06:14:13;;;;;;;3.15;1.38;;;17.00;40.10;;;;;;4762785;30;20284;-83
2021/03/08 06:16:41;;;;;;;2.42;1.30;;;17.00;40.00;;;;;;4771894;30;20321;-81
2021/03/08 06:19:13;;;;;;;2.58;1.30;;;17.00;39.80;;;;;;4799273;30;20211;-81
2021/03/08 06:21:39;;;;;;;4.22;1.20;;;17.00;39.70;;;;;;4784430;30;20191;-81
2021/03/08 06:24:14;;;;;;;3.75;1.20;;;17.00;39.80;;;;;;4794919;29;20196;-81
2021/03/08 06:26:43;;;;;;;3.78;1.42;;;17.00;39.60;;;;;;4820487;29;20194;-81
2021/03/08 06:29:09;;;;;;;2.58;1.30;;;17.00;39.80;;;;;;4821409;29;20596;-81
2021/03/08 06:31:36;;;;;;;2.72;1.33;;;17.00;39.40;;;;;;4821488;29;20182;-81
2021/03/08 06:34:02;;;;;;;2.65;1.50;;;17.00;39.70;;;;;;4873416;29;20228;-82
2021/03/08 06:36:31;;;;;;;3.30;1.30;;;17.00;39.40;;;;;;4893650;29;20207;-81
2021/03/08 06:38:58;;;;;;;5.47;1.63;;;17.10;39.30;;;;;;4877946;29;20182;-81
2021/03/08 06:41:25;;;;;;;2.38;1.05;;;17.10;39.20;;;;;;4893255;29;20195;-81
2021/03/08 06:43:51;;;;;;;3.47;1.38;;;17.10;39.60;;;;;;4903557;29;20175;-81
2021/03/08 06:46:17;;;;;;;3.42;1.50;;;17.10;39.30;;;;;;4912394;29;20202;-81
2021/03/08 06:48:48;;;;;;;2.00;1.20;;;17.10;39.10;;;;;;4949577;29;20205;-81
2021/03/08 06:51:24;;;;;;;2.90;1.48;;;17.20;38.80;;;;;;4935545;29;20165;-81
2021/03/08 06:53:52;;;;;;;3.15;1.40;;;17.20;38.90;;;;;;4951850;29;20154;-81
2021/03/08 06:56:22;;;;;;;1.45;1.05;;;17.20;38.90;;;;;;4919275;29;20176;-81
2021/03/08 06:59:13;;;;;;;1.63;1.20;;;17.20;38.50;;;;;;4935579;29;20162;-81
2021/03/08 07:01:40;;;;;;;1.45;1.00;;;17.30;38.90;;;;;;4968158;29;20265;-81
2021/03/08 07:04:19;;;;;;;1.50;1.17;;;17.20;38.80;;;;;;4919297;29;20201;-81
2021/03/08 07:07:06;;;;;;;2.50;1.15;;;17.20;38.50;;;;;;4931674;29;20189;-81
2021/03/08 07:09:34;;;;;;;2.03;1.27;;;17.20;38.40;;;;;;4919764;29;20195;-81
2021/03/08 07:12:13;;;;;;;2.05;1.20;;;17.20;38.40;;;;;;4963163;29;20170;-81
2021/03/08 07:14:41;;;;;;;1.98;1.20;;;17.30;38.20;;;;;;4936608;29;20229;-82
2021/03/08 07:17:34;;;;;;;2.28;1.27;;;17.30;38.30;;;;;;4938337;29;20193;-81
2021/03/08 07:20:08;;;;;;;3.10;1.40;;;17.20;38.30;;;;;;4953528;29;20169;-81
2021/03/08 07:22:47;;;;;;;2.15;1.30;;;17.20;38.50;;;;;;4940292;29;20345;-81
2021/03/08 07:25:24;;;;;;;3.17;1.00;;;17.30;37.90;;;;;;4956553;29;20169;-81
2021/03/08 07:27:55;;;;;;;2.13;1.08;;;17.20;38.20;;;;;;4953560;29;20161;-81
2021/03/08 07:30:22;;;;;;;2.90;1.40;;;17.30;37.90;;;;;;4939621;29;20529;-81
2021/03/08 07:33:03;;;;;;;2.15;1.40;;;17.30;37.80;;;;;;4924511;29;20170;-81
2021/03/08 07:35:42;;;;;;;2.63;0.95;;;17.30;37.70;;;;;;4952491;29;20170;-80
2021/03/08 07:38:11;;;;;;;2.55;1.20;;;17.30;37.80;;;;;;4938616;29;20190;-81
2021/03/08 07:40:41;;;;;;;1.83;1.08;;;17.30;37.70;;;;;;4940388;29;20225;-80
2021/03/08 07:43:29;;;;;;;1.73;1.15;;;17.40;37.60;;;;;;4955921;29;20248;-81
2021/03/08 07:45:55;;;;;;;2.60;1.27;;;17.40;37.60;;;;;;4973171;29;20216;-81
2021/03/08 07:48:21;;;;;;;2.33;1.23;;;17.40;37.60;;;;;;4923951;29;20237;-81
2021/03/08 07:50:49;;;;;;;3.40;1.10;;;17.40;37.40;;;;;;4923397;29;20175;-81
2021/03/08 07:53:27;;;;;;;1.63;1.02;;;17.40;37.30;;;;;;4931225;29;20185;-81
2021/03/08 07:56:06;;;;;;;2.78;1.40;;;17.40;36.90;;;;;;4956860;29;20165;-81
2021/03/08 07:58:36;;;;;;;2.83;1.33;;;17.40;36.70;;;;;;4917207;29;20170;-80
2021/03/08 08:01:04;;;;;;;2.53;1.23;;;17.40;37.00;;;;;;4915376;29;20238;-81
2021/03/08 08:03:30;;;;;;;2.83;1.27;;;17.40;37.10;;;;;;4915045;29;20171;-81
2021/03/08 08:06:00;;;;;;;1.25;0.98;;;17.40;36.90;;;;;;4915487;29;20181;-81
2021/03/08 08:08:28;;;;;;;1.63;1.08;;;17.40;37.00;;;;;;4936083;29;20200;-81
2021/03/08 08:10:55;;;;;;;2.13;1.10;;;17.30;37.10;;;;;;4912945;29;20171;-80
2021/03/08 08:13:33;;;;;;;3.08;1.45;;;17.40;36.60;;;;;;4963312;29;20738;-81
2021/03/08 08:16:06;;;;;;;1.40;1.17;;;17.40;36.70;;;;;;4961100;29;20204;-80
2021/03/08 08:18:47;;;;;;;1.98;1.13;;;17.40;36.70;;;;;;4941680;29;20260;-80
2021/03/08 08:21:17;;;;;;;1.98;1.20;;;17.50;36.60;;;;;;4944445;29;20654;-80
2021/03/08 08:23:56;;;;;;;2.85;1.17;;;17.50;36.30;;;;;;4923656;29;20189;-80
2021/03/08 08:26:35;;;;;;;2.55;1.17;;;17.40;36.50;;;;;;4942594;29;20233;-80
2021/03/08 08:29:01;;;;;;;2.25;1.15;;;17.50;36.70;;;;;;4942825;29;20202;-81
2021/03/08 08:31:54;;;;;;;1.70;1.00;;;17.50;36.20;;;;;;4922955;29;20185;-81
2021/03/08 08:34:41;;;;;;;2.80;1.30;;;17.60;36.10;;;;;;4938723;29;20170;-81
2021/03/08 08:37:09;;;;;;;1.77;1.00;;;17.60;36.00;;;;;;4938222;29;20552;-81
2021/03/08 08:39:50;;;;;;;3.13;1.50;;;17.60;36.20;;;;;;4953568;29;20165;-81
2021/03/08 08:42:32;;;;;;;1.13;1.02;;;17.60;36.40;;;;;;4948199;29;20198;-81
2021/03/08 08:45:32;;;;;;;1.85;1.23;;;17.60;36.30;;;;;;4931814;29;20221;-81
2021/03/08 08:48:05;;;;;;;2.50;1.25;;;17.50;36.20;;;;;;4955193;29;20189;-81
2021/03/08 08:50:54;;;;;;;2.20;1.13;;;17.60;36.10;;;;;;4928147;29;20152;-81
2021/03/08 08:53:39;;;;;;;1.92;1.38;;;17.60;35.90;;;;;;4925584;29;20190;-80
2021/03/08 08:56:09;;;;;;;1.95;1.00;;;17.60;36.00;;;;;;4948417;29;20246;-81
2021/03/08 08:58:50;;;;;;;1.00;0.90;;;17.50;35.90;;;;;;4927855;29;20166;-81
2021/03/08 09:01:34;;;;;;;1.80;0.90;;;17.60;36.10;;;;;;4907317;29;20241;-82
2021/03/08 09:04:10;;;;;;;2.35;1.10;;;17.60;35.80;;;;;;4923257;29;20646;-82
2021/03/08 09:06:55;;;;;;;1.67;1.20;;;17.70;35.60;;;;;;4924106;29;20174;-81
2021/03/08 09:09:31;;;;;;;1.63;1.10;;;17.70;35.60;;;;;;4952784;29;20194;-81
2021/03/08 09:12:06;;;;;;;1.20;0.77;;;17.70;35.80;;;;;;4937403;29;20219;-81
2021/03/08 09:14:38;;;;;;;1.50;1.20;;;17.80;35.60;;;;;;4937442;29;20225;-81
2021/03/08 09:17:16;;;;;;;1.20;0.90;;;17.70;35.60;;;;;;4936638;29;20203;-81
2021/03/08 09:19:51;;;;;;;2.88;1.13;;;17.60;35.60;;;;;;4944185;29;20162;-81
2021/03/08 09:22:23;;;;;;;1.50;0.80;;;17.70;35.50;;;;;;4916746;29;20169;-81
2021/03/08 09:24:57;;;;;;;2.03;1.20;;;17.70;35.30;;;;;;4956782;29;20174;-82
2021/03/08 09:27:31;;;;;;;1.67;1.27;;;17.70;35.50;;;;;;4940585;29;20174;-81
2021/03/08 09:30:15;;;;;;;0.95;0.88;;;17.70;35.50;;;;;;4938869;29;20197;-81
2021/03/08 09:32:56;;;;;;;1.83;1.10;;;17.70;35.20;;;;;;4923945;29;20167;-81
2021/03/08 09:35:24;;;;;;;1.85;1.00;;;17.70;35.30;;;;;;4922712;29;20264;-81
2021/03/08 09:37:53;;;;;;;1.63;1.08;;;17.70;35.20;;;;;;4937379;29;20551;-81
2021/03/08 09:40:36;;;;;;;1.52;0.90;;;17.80;35.00;;;;;;4937979;29;20632;-81
2021/03/08 09:43:22;;;;;;;1.77;1.15;;;17.80;34.80;;;;;;4920853;29;20174;-81
2021/03/08 09:45:55;;;;;;;2.42;0.98;;;17.90;34.80;;;;;;4953635;29;20184;-81
2021/03/08 09:48:21;;;;;;;1.30;0.95;;;17.80;35.10;;;;;;4939892;29;20221;-81
2021/03/08 09:50:47;;;;;;;1.23;0.88;;;17.80;35.00;;;;;;4917265;29;20195;-81
2021/03/08 09:53:14;;;;;;;1.98;1.13;;;17.80;35.00;;;;;;4917087;29;20330;-81
2021/03/08 09:55:40;;;;;;;1.33;1.00;;;17.80;34.80;;;;;;4928490;29;20517;-82
2021/03/08 09:58:22;;;;;;;1.15;0.85;;;17.90;34.70;;;;;;4948227;29;20265;-81
2021/03/08 10:00:52;;;;;;;1.45;0.80;;;17.90;34.40;;;;;;4936324;29;20165;-81
2021/03/08 10:03:20;;;;;;;1.13;0.75;;;17.90;34.40;;;;;;4952742;29;20157;-81
2021/03/08 10:05:58;;;;;;;1.05;0.90;;;18.00;35.30;;;;;;4934291;29;20158;-81
2021/03/08 10:08:30;;;;;;;1.40;0.90;;;18.00;34.50;;;;;;4935481;29;20201;-81
2021/03/08 10:10:57;;;;;;;1.00;0.90;;;18.00;34.60;;;;;;4945642;29;20201;-82
2021/03/08 10:13:23;;;;;;;1.70;1.00;;;17.90;34.50;;;;;;4941554;29;20222;-81
2021/03/08 10:15:54;;;;;;;2.28;0.82;;;17.90;34.40;;;;;;4909391;29;20648;-82
2021/03/08 10:18:23;;;;;;;1.67;1.20;;;17.90;34.40;;;;;;4930531;29;20174;-81
2021/03/08 10:20:57;;;;;;;1.60;0.75;;;18.00;35.10;;;;;;4931484;29;20178;-81
2021/03/08 10:23:26;;;;;;;2.55;0.80;;;18.00;34.30;;;;;;4945772;29;20190;-81
2021/03/08 10:26:01;;;;;;;1.63;0.95;;;18.00;34.50;;;;;;4930822;29;20194;-81
2021/03/08 10:28:51;;;;;;;4.15;1.05;;;18.00;34.20;;;;;;4947211;29;20221;-81
2021/03/08 10:31:25;;;;;;;3.85;1.10;;;18.00;34.30;;;;;;4930318;29;20613;-81
2021/03/08 10:34:18;;;;;;;3.88;1.33;;;18.00;34.30;;;;;;4946602;29;20157;-81
2021/03/08 10:36:45;;;;;;;4.57;0.85;;;18.00;34.10;;;;;;4944662;29;20166;-81
2021/03/08 10:39:15;;;;;;;11.27;1.50;;;18.10;34.10;;;;;;4930668;29;20263;-81
2021/03/08 10:41:51;;;;;;;8.05;1.17;;;18.10;34.00;;;;;;4931251;29;20766;-81
2021/03/08 10:44:20;;;;;;;8.85;1.17;;;18.00;34.10;;;;;;4940498;29;20593;-81
2021/03/08 10:46:47;;;;;;;7.05;1.20;;;18.00;34.00;;;;;;4910855;29;20198;-81
2021/03/08 10:49:13;;;;;;;12.13;1.73;;;18.00;33.90;;;;;;4923978;29;20191;-82
2021/03/08 10:51:48;;;;;;;10.90;2.10;;;18.00;34.00;;;;;;4932278;29;20185;-82
2021/03/08 10:54:17;;;;;;;14.95;1.77;;;18.10;33.90;;;;;;4948827;29;20153;-81
2021/03/08 10:56:58;;;;;;;11.35;1.50;;;18.10;34.10;;;;;;4934664;29;20166;-81
2021/03/08 10:59:29;;;;;;;15.77;1.70;;;18.10;33.90;;;;;;4947011;29;20176;-81
2021/03/08 11:02:02;;;;;;;8.27;1.50;;;18.20;33.60;;;;;;4932005;29;20166;-81
2021/03/08 11:04:28;;;;;;;10.52;1.15;;;18.20;33.60;;;;;;4934112;29;20181;-81
2021/03/08 11:06:53;;;;;;;11.93;1.42;;;18.20;33.40;;;;;;4916984;29;20181;-81
2021/03/08 11:09:33;;;;;;;7.50;1.23;;;18.10;33.70;;;;;;4915627;29;20220;-80
2021/03/08 11:11:59;;;;;;;12.68;1.42;;;18.10;33.60;;;;;;4934411;29;20516;-82
2021/03/08 11:14:28;;;;;;;11.32;1.25;;;18.10;33.70;;;;;;4919622;29;20237;-81
2021/03/08 11:16:55;;;;;;;3.40;0.93;;;18.10;33.60;;;;;;4922923;29;20173;-82
2021/03/08 11:19:23;;;;;;;10.05;1.20;;;18.20;33.50;;;;;;4918923;29;20177;-81
2021/03/08 11:22:02;;;;;;;6.07;1.00;;;18.10;33.50;;;;;;4919103;29;20196;-81
2021/03/08 11:24:32;;;;;;;7.05;1.58;;;18.20;33.50;;;;;;4947687;29;20602;-82
2021/03/08 11:27:27;;;;;;;7.38;1.50;;;18.20;33.50;;;;;;4935677;29;20220;-80
2021/03/08 11:30:12;;;;;;;5.38;1.25;;;18.20;33.50;;;;;;4950277;29;20260;-81
2021/03/08 11:32:39;;;;;;;4.28;1.20;;;18.10;33.40;;;;;;4954773;29;20153;-80
2021/03/08 11:35:15;;;;;;;6.07;1.00;;;18.20;33.30;;;;;;4921404;29;20165;-80
2021/03/08 11:37:50;;;;;;;6.70;1.20;;;18.10;33.50;;;;;;4932560;29;20157;-82
2021/03/08 11:40:17;;;;;;;4.40;1.30;;;18.10;33.60;;;;;;4912074;29;20229;-81
2021/03/08 11:42:44;;;;;;;3.83;0.90;;;18.10;33.50;;;;;;4914476;29;20226;-81
2021/03/08 11:45:14;;;;;;;7.45;1.02;;;18.10;33.40;;;;;;4929636;29;20677;-81
2021/03/08 11:47:44;;;;;;;2.30;0.85;;;18.20;33.50;;;;;;4930446;29;20175;-81
2021/03/08 11:50:13;;;;;;;2.65;1.00;;;18.10;33.50;;;;;;4929775;29;20242;-81
2021/03/08 11:53:14;;;;;;;7.80;1.20;;;18.10;33.50;;;;;;4931895;29;20167;-82
2021/03/08 11:56:02;;;;;;;2.83;0.90;;;18.10;33.50;;;;;;5070416;23;20294;-81
2021/03/08 11:59:03;;;;;;;4.40;1.48;;;18.10;33.40;;;;;;4920602;29;20186;-82
2021/03/08 12:02:00;;;;;;;4.72;1.00;;;18.20;33.20;;;;;;4921407;29;20182;-81
2021/03/08 12:05:05;;;;;;;4.25;1.10;;;18.10;33.40;;;;;;4935201;29;20167;-82
2021/03/08 12:07:34;;;;;;;2.38;0.93;;;18.00;33.50;;;;;;4920430;29;20202;-81
2021/03/08 12:10:11;;;;;;;2.50;0.95;;;18.00;33.40;;;;;;4912557;29;20561;-81
2021/03/08 12:13:20;;;;;;;2.55;1.10;;;18.00;33.40;;;;;;4918752;29;20678;-81
2021/03/08 12:16:27;;;;;;;1.63;1.08;;;18.00;33.40;;;;;;4916611;29;20199;-82
2021/03/08 12:19:02;;;;;;;2.80;1.00;;;18.00;33.20;;;;;;4917244;29;20270;-82
2021/03/08 12:22:32;;;;;;;2.78;0.88;;;17.90;33.10;;;;;;4918268;29;20226;-81
2021/03/08 12:25:45;;;;;;;3.92;1.10;;;18.00;33.30;;;;;;4918483;29;20179;-82
2021/03/08 12:28:24;;;;;;;4.47;0.90;;;17.90;33.20;;;;;;4911448;29;20180;-81
2021/03/08 12:31:42;;;;;;;;;;;;;;;;;;;;;
2021/03/08 12:34:32;;;;;;;3.03;1.00;;;18.10;32.30;;;;;;4909024;29;20218;-81
2021/03/08 12:36:59;;;;;;;3.72;0.80;;;18.20;31.80;;;;;;4921611;29;20183;-81
2021/03/08 12:39:38;;;;;;;1.52;0.98;;;18.10;30.70;;;;;;4919280;29;20176;-80
2021/03/08 12:42:18;;;;;;;4.20;1.00;;;18.10;32.10;;;;;;4920100;29;20280;-81
2021/03/08 12:45:02;;;;;;;2.97;0.80;;;18.10;31.70;;;;;;4920167;29;20236;-81
2021/03/08 12:51:20;;;;;;;1.50;0.80;;;18.20;30.50;;;;;;4884206;29;20216;-81
2021/03/08 12:53:51;;;;;;;2.35;0.80;;;18.20;31.20;;;;;;4868076;29;20204;-80
2021/03/08 12:57:11;;;;;;;2.90;1.17;;;18.10;31.10;;;;;;4866526;29;20248;-81
2021/03/08 12:59:38;;;;;;;2.15;0.77;;;18.10;31.00;;;;;;4882441;29;20192;-81
2021/03/08 13:05:38;;;;;;;1.88;0.80;;;18.10;31.00;;;;;;4882691;29;20199;-82
2021/03/08 13:08:11;;;;;;;2.28;0.90;;;18.10;32.20;;;;;;4864112;29;20173;-81
2021/03/08 13:10:47;;;;;;;1.23;0.95;;;18.00;31.90;;;;;;4863549;29;20672;-82
2021/03/08 13:19:58;;;;;;;1.08;0.88;;;17.90;32.20;;;;;;4878034;29;20241;-81
2021/03/08 13:22:44;;;;;;;0.95;0.60;;;17.90;32.20;;;;;;4865138;29;20190;-81
2021/03/08 13:25:16;;;;;;;3.47;0.90;;;18.00;32.00;;;;;;4864295;29;20187;-82
2021/03/08 13:28:04;;;;;;;2.28;0.90;;;18.00;32.00;;;;;;4931928;29;20148;-81
2021/03/08 16:02:25;;;;;;;2.55;0.85;;;18.00;31.50;;;;;;5395179;23;20245;-82
2021/03/08 16:12:47;;;;;;;3.45;0.80;;;18.00;31.40;;;;;;4936227;23;20320;-84
2021/03/08 16:16:10;;;;;;;3.00;0.80;;;18.10;31.30;;;;;;4886127;29;20175;-84
2021/03/08 16:19:01;;;;;;;5.25;1.00;;;18.00;31.60;;;;;;4867451;29;20185;-84
2021/03/08 16:21:32;;;;;;;3.40;1.00;;;18.00;31.70;;;;;;4866933;29;20187;-82
2021/03/08 16:24:31;;;;;;;5.90;0.88;;;18.10;31.70;;;;;;4846286;29;20179;-83
2021/03/08 16:27:41;;;;;;;4.30;0.80;;;18.10;31.70;;;;;;4848461;29;20190;-81
2021/03/08 16:30:21;;;;;;;7.38;1.15;;;18.10;31.80;;;;;;4861336;29;20208;-84
2021/03/08 16:36:12;;;;;;;2.97;0.70;;;18.10;31.50;;;;;;4880722;29;20360;-82
2021/03/08 16:39:12;;;;;;;4.32;0.93;;;18.10;30.70;;;;;;4849283;29;20223;-83
2021/03/08 16:41:50;;;;;;;3.55;1.38;;;18.20;31.20;;;;;;4844602;29;20198;-87
2021/03/08 17:33:16;;;;;;;10.45;1.25;;;18.30;32.60;;;;;;5575209;23;20287;-83
2021/03/08 17:35:51;;;;;;;7.25;1.52;;;18.30;32.10;;;;;;4881434;29;20183;-83
2021/03/08 17:38:33;;;;;;;4.80;0.90;;;18.40;31.80;;;;;;4883492;29;20212;-83
2021/03/08 17:41:37;;;;;;;4.72;1.20;;;18.30;32.70;;;;;;4883574;29;20223;-83
2021/03/08 17:44:08;;;;;;;7.50;1.20;;;18.30;32.60;;;;;;4859217;29;20192;-83
2021/03/08 17:46:56;;;;;;;8.73;1.40;;;18.30;32.90;;;;;;4828651;29;20252;-83
2021/03/08 17:49:26;;;;;;;6.93;1.27;;;18.30;33.10;;;;;;4828127;29;20280;-83
2021/03/08 17:52:15;;;;;;;5.80;1.60;;;18.30;33.10;;;;;;4829807;29;20590;-84
2021/03/08 17:54:47;;;;;;;8.73;1.58;;;18.30;32.30;;;;;;4827341;29;20237;-83
2021/03/08 17:57:46;;;;;;;10.30;1.90;;;18.30;32.70;;;;;;4827200;29;20181;-84
2021/03/08 18:00:13;;;;;;;5.35;1.45;;;18.30;32.70;;;;;;4910786;23;20178;-85
2021/03/08 18:02:39;;;;;;;8.18;1.58;;;18.30;32.50;;;;;;4862769;29;20264;-81
2021/03/08 18:05:36;;;;;;;15.27;2.13;;;18.40;32.60;;;;;;4848152;29;20216;-82
2021/03/08 18:08:10;;;;;;;14.25;1.70;;;18.40;32.70;;;;;;4860961;29;20173;-82
2021/03/08 18:10:54;;;;;;;10.52;1.52;;;18.40;33.10;;;;;;4844781;29;20211;-84
2021/03/08 18:13:54;;;;;;;6.97;1.50;;;18.40;32.70;;;;;;4819688;29;20258;-82
2021/03/08 18:16:35;;;;;;;8.65;1.23;;;18.40;32.70;;;;;;4800138;30;20195;-82
2021/03/08 18:19:06;;;;;;;5.38;1.35;;;18.40;33.10;;;;;;4787408;30;20195;-81
2021/03/08 19:09:25;;;;;;;8.60;1.40;;;18.20;33.90;;;;;;5968314;23;20215;31
2021/03/08 19:11:51;;;;;;;5.82;1.50;;;18.20;34.20;;;;;;4842526;29;20209;-82
2021/03/08 19:21:02;;;;;;;12.77;1.55;;;18.20;33.90;;;;;;4859219;29;20177;-81
2021/03/08 19:23:28;;;;;;;7.63;1.63;;;18.20;33.80;;;;;;4830068;29;20185;-81
2021/03/08 19:26:06;;;;;;;5.45;1.75;;;18.10;33.80;;;;;;4863332;29;20176;-81